createdAt,value
2023-02-13T00:01:26.839Z,8.57
2023-02-13T00:04:00.454Z,8.50
2023-02-13T00:06:31.744Z,8.45
2023-02-13T00:09:00.794Z,8.40
2023-02-13T00:11:29.713Z,8.37
2023-02-13T00:13:59.016Z,8.36
2023-02-13T00:16:28.215Z,8.38
2023-02-13T00:19:03.129Z,8.41
2023-02-13T00:21:35.997Z,8.39
2023-02-13T00:24:06.478Z,8.38
2023-02-13T00:26:34.605Z,8.38
2023-02-13T00:29:07.266Z,8.35
2023-02-13T00:31:36.247Z,8.35
2023-02-13T00:34:04.449Z,8.36
2023-02-13T00:36:32.882Z,8.35
2023-02-13T00:39:01.252Z,8.32
2023-02-13T00:41:30.862Z,8.30
2023-02-13T00:43:59.037Z,8.30
2023-02-13T00:46:27.240Z,8.30
2023-02-13T00:48:55.380Z,8.31
2023-02-13T00:51:23.613Z,8.33
2023-02-13T00:53:52.861Z,8.34
2023-02-13T00:56:20.823Z,8.34
2023-02-13T00:58:49.441Z,8.34
2023-02-13T01:01:17.624Z,8.33
2023-02-13T01:03:46.112Z,8.32
2023-02-13T01:06:14.575Z,8.27
2023-02-13T01:08:42.649Z,8.21
2023-02-13T01:11:10.899Z,8.14
2023-02-13T01:13:39.337Z,8.10
2023-02-13T01:16:08.428Z,8.08
2023-02-13T01:18:39.095Z,8.08
2023-02-13T01:21:08.322Z,8.06
2023-02-13T01:23:44.093Z,8.07
2023-02-13T01:26:21.207Z,8.10
2023-02-13T01:28:55.094Z,8.13
2023-02-13T01:31:26.695Z,8.16
2023-02-13T01:33:58.458Z,8.19
2023-02-13T01:36:26.808Z,8.23
2023-02-13T01:38:57.986Z,8.24
2023-02-13T01:41:27.152Z,8.25
2023-02-13T01:44:00.209Z,8.29
2023-02-13T01:46:37.347Z,8.30
2023-02-13T01:49:19.173Z,8.31
2023-02-13T01:51:49.104Z,8.34
2023-02-13T01:54:19.825Z,8.38
2023-02-13T01:56:56.300Z,8.39
2023-02-13T01:59:55.929Z,8.41
2023-02-13T02:02:24.118Z,8.45
2023-02-13T02:04:52.330Z,8.45
2023-02-13T02:07:25.582Z,8.44
2023-02-13T02:09:58.423Z,8.42
2023-02-13T02:12:32.362Z,8.43
2023-02-13T02:15:00.703Z,8.42
2023-02-13T02:17:32.720Z,8.42
2023-02-13T02:20:22.143Z,8.45
2023-02-13T02:23:19.125Z,8.51
2023-02-13T02:25:51.091Z,8.54
2023-02-13T02:28:39.261Z,8.54
2023-02-13T02:31:34.782Z,8.53
2023-02-13T02:34:06.106Z,8.54
2023-02-13T02:36:48.711Z,8.55
2023-02-13T02:39:23.569Z,8.56
2023-02-13T02:42:12.268Z,8.58
2023-02-13T02:44:45.344Z,8.60
2023-02-13T02:47:35.152Z,8.58
2023-02-13T02:50:25.024Z,8.61
2023-02-13T02:53:12.486Z,8.61
2023-02-13T02:55:54.444Z,8.60
2023-02-13T02:59:02.245Z,8.60
2023-02-13T03:01:49.812Z,8.58
2023-02-13T03:05:00.257Z,8.56
2023-02-13T03:07:28.416Z,8.55
2023-02-13T03:10:16.448Z,8.56
2023-02-13T03:13:20.644Z,8.54
2023-02-13T03:16:09.479Z,8.53
2023-02-13T03:18:59.977Z,8.52
2023-02-13T03:22:18.905Z,8.51
2023-02-13T03:25:08.084Z,8.49
2023-02-13T03:28:26.244Z,8.47
2023-02-13T03:31:32.920Z,8.46
2023-02-13T03:34:13.162Z,8.45
2023-02-13T03:37:15.809Z,8.46
2023-02-13T03:39:53.794Z,8.46
2023-02-13T03:42:29.017Z,8.48
2023-02-13T03:45:19.438Z,8.51
2023-02-13T03:47:47.795Z,8.54
2023-02-13T03:50:15.975Z,8.57
2023-02-13T03:52:54.564Z,8.60
2023-02-13T03:55:47.455Z,8.62
2023-02-13T03:58:37.056Z,8.66
2023-02-13T04:01:06.857Z,8.70
2023-02-13T04:03:43.013Z,8.74
2023-02-13T04:06:16.301Z,8.79
2023-02-13T04:08:44.333Z,8.81
2023-02-13T04:11:34.091Z,8.84
2023-02-13T04:14:08.731Z,8.89
2023-02-13T04:16:43.793Z,8.95
2023-02-13T04:19:11.976Z,9.00
2023-02-13T04:21:40.457Z,9.01
2023-02-13T04:24:09.485Z,9.01
2023-02-13T04:26:39.584Z,9.01
2023-02-13T04:29:08.588Z,9.05
2023-02-13T04:31:36.840Z,9.08
2023-02-13T04:34:05.143Z,9.11
2023-02-13T04:36:33.456Z,9.14
2023-02-13T04:39:01.679Z,9.16
2023-02-13T04:41:29.717Z,9.20
2023-02-13T04:43:58.005Z,9.23
2023-02-13T04:46:26.377Z,9.27
2023-02-13T04:48:54.943Z,9.32
2023-02-13T04:51:23.193Z,9.36
2023-02-13T04:53:51.980Z,9.41
2023-02-13T04:56:20.527Z,9.44
2023-02-13T04:58:48.851Z,9.46
2023-02-13T05:01:17.282Z,9.51
2023-02-13T05:03:45.361Z,9.54
2023-02-13T05:06:13.692Z,9.56
2023-02-13T05:08:42.680Z,9.58
2023-02-13T05:11:11.150Z,9.60
2023-02-13T05:13:44.071Z,9.64
2023-02-13T05:16:12.423Z,9.68
2023-02-13T05:18:40.761Z,9.73
2023-02-13T05:21:27.619Z,9.78
2023-02-13T05:23:56.086Z,9.82
2023-02-13T05:26:24.581Z,9.86
2023-02-13T05:29:11.412Z,9.89
2023-02-13T05:31:40.159Z,9.93
2023-02-13T05:34:08.865Z,9.98
2023-02-13T05:36:37.052Z,10.02
2023-02-13T05:39:06.456Z,10.05
2023-02-13T05:41:35.608Z,10.09
2023-02-13T05:44:03.852Z,10.11
2023-02-13T05:46:31.984Z,10.13
2023-02-13T05:49:04.590Z,10.16
2023-02-13T05:51:33.569Z,10.18
2023-02-13T05:54:02.201Z,10.21
2023-02-13T05:56:30.276Z,10.23
2023-02-13T05:58:58.380Z,10.26
2023-02-13T06:01:26.529Z,10.31
2023-02-13T06:03:56.697Z,10.34
2023-02-13T06:06:26.511Z,10.37
2023-02-13T06:08:54.850Z,10.42
2023-02-13T06:11:23.093Z,10.46
2023-02-13T06:13:51.727Z,10.49
2023-02-13T06:16:24.738Z,10.52
2023-02-13T06:18:53.247Z,10.56
2023-02-13T06:21:22.555Z,10.59
2023-02-13T06:23:50.964Z,10.62
2023-02-13T06:26:19.286Z,10.68
2023-02-13T06:28:47.662Z,10.77
2023-02-13T06:31:15.938Z,10.85
2023-02-13T06:33:44.250Z,10.91
2023-02-13T06:36:12.383Z,11.01
2023-02-13T06:38:41.011Z,11.09
2023-02-13T06:41:10.080Z,11.17
2023-02-13T06:43:39.890Z,11.29
2023-02-13T06:46:09.627Z,11.40
2023-02-13T06:48:37.885Z,11.52
2023-02-13T06:51:06.249Z,11.71
2023-02-13T06:53:34.540Z,11.88
2023-02-13T06:56:05.122Z,12.04
2023-02-13T06:58:34.232Z,12.18
2023-02-13T07:01:02.486Z,12.26
2023-02-13T07:03:30.908Z,12.31
2023-02-13T07:05:59.137Z,12.32
2023-02-13T07:08:27.470Z,12.30
2023-02-13T07:10:56.498Z,12.38
2023-02-13T07:13:25.677Z,12.51
2023-02-13T07:15:53.824Z,12.75
2023-02-13T07:18:22.343Z,13.03
2023-02-13T07:20:50.394Z,13.28
2023-02-13T07:23:18.528Z,13.50
2023-02-13T07:25:46.683Z,13.63
2023-02-13T07:28:15.350Z,13.74
2023-02-13T07:30:43.645Z,13.79
2023-02-13T07:33:13.527Z,13.87
2023-02-13T07:35:49.911Z,13.97
2023-02-13T07:38:22.076Z,14.11
2023-02-13T07:40:50.230Z,14.20
2023-02-13T07:43:18.478Z,14.16
2023-02-13T07:45:47.183Z,14.10
2023-02-13T07:48:15.251Z,14.08
2023-02-13T07:50:43.478Z,14.04
2023-02-13T07:53:11.623Z,13.99
2023-02-13T07:55:39.890Z,13.93
2023-02-13T07:58:08.195Z,13.82
2023-02-13T08:00:36.647Z,13.79
2023-02-13T08:03:05.558Z,13.80
2023-02-13T08:05:33.778Z,13.76
2023-02-13T08:10:52.628Z,12.29
2023-02-13T08:13:21.115Z,13.24
2023-02-13T08:15:49.156Z,13.19
2023-02-13T08:18:18.989Z,13.11
2023-02-13T08:20:48.604Z,12.98
2023-02-13T08:23:17.182Z,12.87
2023-02-13T08:25:48.132Z,12.77
2023-02-13T08:28:16.987Z,12.64
2023-02-13T08:30:45.227Z,12.51
2023-02-13T08:33:14.289Z,12.40
2023-02-13T08:35:42.782Z,12.35
2023-02-13T08:38:13.302Z,12.30
2023-02-13T08:40:41.478Z,12.21
2023-02-13T08:43:09.551Z,12.13
2023-02-13T08:45:40.120Z,12.04
2023-02-13T08:48:08.473Z,11.96
2023-02-13T08:50:37.441Z,11.94
2023-02-13T08:53:07.485Z,11.90
2023-02-13T08:55:35.759Z,11.83
2023-02-13T08:58:05.159Z,11.79
2023-02-13T09:00:34.263Z,11.78
2023-02-13T09:03:03.526Z,11.74
2023-02-13T09:05:33.018Z,11.77
2023-02-13T09:08:03.790Z,11.80
2023-02-13T09:10:32.649Z,11.78
2023-02-13T09:13:01.492Z,11.79
2023-02-13T09:15:30.433Z,11.76
2023-02-13T09:17:58.554Z,11.76
2023-02-13T09:20:26.548Z,11.75
2023-02-13T09:22:56.176Z,11.76
2023-02-13T09:25:25.759Z,11.83
2023-02-13T09:27:53.976Z,11.89
2023-02-13T09:30:25.475Z,11.91
2023-02-13T09:32:55.092Z,11.89
2023-02-13T09:35:23.347Z,11.85
2023-02-13T09:37:51.821Z,11.80
2023-02-13T09:40:32.343Z,11.73
2023-02-13T09:43:37.565Z,11.68
2023-02-13T09:46:12.956Z,11.69
2023-02-13T09:48:44.064Z,11.70
2023-02-13T09:51:16.801Z,11.75
2023-02-13T09:54:05.190Z,11.77
2023-02-13T09:56:37.019Z,11.79
2023-02-13T09:59:39.408Z,11.78
2023-02-13T10:02:29.538Z,11.76
2023-02-13T10:05:23.040Z,11.79
2023-02-13T10:08:11.277Z,11.80
2023-02-13T10:10:51.588Z,11.85
2023-02-13T10:13:32.214Z,11.89
2023-02-13T10:16:18.323Z,11.93
2023-02-13T10:19:07.004Z,12.11
2023-02-13T10:21:48.586Z,12.24
2023-02-13T10:24:56.968Z,12.25
2023-02-13T10:27:26.996Z,12.28
2023-02-13T10:30:09.617Z,12.35
2023-02-13T10:33:15.213Z,12.42
2023-02-13T10:35:43.461Z,12.48
2023-02-13T10:38:17.767Z,12.48
2023-02-13T10:40:48.381Z,12.51
2023-02-13T10:43:20.289Z,12.52
2023-02-13T10:45:57.931Z,12.59
2023-02-13T10:48:58.086Z,12.65
2023-02-13T10:51:36.085Z,12.63
2023-02-13T10:54:46.858Z,12.62
2023-02-13T10:57:40.234Z,12.66
2023-02-13T11:00:18.171Z,12.68
2023-02-13T11:02:46.532Z,12.69
2023-02-13T11:05:21.371Z,12.75
2023-02-13T11:07:51.293Z,12.78
2023-02-13T11:10:21.637Z,12.79
2023-02-13T11:12:51.608Z,12.79
2023-02-13T11:15:28.968Z,12.75
2023-02-13T11:18:13.777Z,12.67
2023-02-13T11:20:46.910Z,12.82
2023-02-13T11:23:24.268Z,13.01
2023-02-13T11:26:02.991Z,13.05
2023-02-13T11:28:32.891Z,13.04
2023-02-13T11:31:25.573Z,13.02
2023-02-13T11:33:53.802Z,12.99
2023-02-13T11:36:25.304Z,12.99
2023-02-13T11:39:06.702Z,13.01
2023-02-13T11:41:41.226Z,12.98
2023-02-13T11:44:23.391Z,12.95
2023-02-13T11:46:53.183Z,12.96
2023-02-13T11:49:22.220Z,12.98
2023-02-13T11:51:57.854Z,13.00
2023-02-13T11:54:26.030Z,12.87
2023-02-13T11:57:06.790Z,12.55
2023-02-13T11:59:43.041Z,12.48
2023-02-13T12:02:21.581Z,12.59
2023-02-13T12:04:51.836Z,12.72
2023-02-13T12:07:30.521Z,12.78
2023-02-13T12:10:14.105Z,12.80
2023-02-13T12:12:53.900Z,12.95
2023-02-13T12:15:33.140Z,12.79
2023-02-13T12:18:27.456Z,12.73
2023-02-13T12:21:11.408Z,12.71
2023-02-13T12:24:02.322Z,12.68
2023-02-13T12:26:44.519Z,12.61
2023-02-13T12:29:18.451Z,12.59
2023-02-13T12:32:03.122Z,12.62
2023-02-13T12:34:46.565Z,12.66
2023-02-13T12:37:16.800Z,12.67
2023-02-13T12:39:54.818Z,12.78
2023-02-13T12:42:34.546Z,12.91
2023-02-13T12:45:05.566Z,12.96
2023-02-13T12:47:42.867Z,13.01
2023-02-13T12:50:13.828Z,13.08
2023-02-13T12:53:03.165Z,13.11
2023-02-13T12:55:41.147Z,13.07
2023-02-13T12:58:34.138Z,12.98
2023-02-13T13:01:08.536Z,12.93
2023-02-13T13:03:52.023Z,12.93
2023-02-13T13:06:58.455Z,12.92
2023-02-13T13:09:45.743Z,12.96
2023-02-13T13:12:28.872Z,12.99
2023-02-13T13:15:12.322Z,13.29
2023-02-13T13:18:16.099Z,13.52
2023-02-13T13:20:51.679Z,13.67
2023-02-13T13:23:40.081Z,13.62
2023-02-13T13:26:38.127Z,13.62
2023-02-13T13:29:11.113Z,13.67
2023-02-13T13:31:40.286Z,13.70
2023-02-13T13:34:22.069Z,13.75
2023-02-13T13:37:23.214Z,13.71
2023-02-13T13:40:15.562Z,13.61
2023-02-13T13:43:00.016Z,13.61
2023-02-13T13:45:34.569Z,13.61
2023-02-13T13:48:39.632Z,13.57
2023-02-13T13:51:08.094Z,13.52
2023-02-13T13:53:39.287Z,13.57
2023-02-13T13:56:09.626Z,13.53
2023-02-13T13:58:46.130Z,13.48
2023-02-13T14:01:29.510Z,13.45
2023-02-13T14:04:24.363Z,13.42
2023-02-13T14:07:16.187Z,13.36
2023-02-13T14:09:44.357Z,13.26
2023-02-13T14:12:24.622Z,13.19
2023-02-13T14:14:53.258Z,13.19
2023-02-13T14:17:46.351Z,13.17
2023-02-13T14:20:42.641Z,13.17
2023-02-13T14:23:24.128Z,13.23
2023-02-13T14:26:15.268Z,13.21
2023-02-13T14:28:49.749Z,13.14
2023-02-13T14:31:22.817Z,13.08
2023-02-13T14:34:03.398Z,13.07
2023-02-13T14:36:35.945Z,13.09
2023-02-13T14:39:22.477Z,13.09
2023-02-13T14:41:57.008Z,13.02
2023-02-13T14:44:49.240Z,13.04
2023-02-13T14:47:32.028Z,13.11
2023-02-13T14:50:00.875Z,13.25
2023-02-13T14:52:33.217Z,13.33
2023-02-13T14:55:05.482Z,13.37
2023-02-13T14:57:50.540Z,13.36
2023-02-13T15:00:25.791Z,13.35
2023-02-13T15:03:00.136Z,13.31
2023-02-13T15:05:34.022Z,13.25
2023-02-13T15:08:02.518Z,13.23
2023-02-13T15:10:48.009Z,13.22
2023-02-13T15:13:37.408Z,13.23
2023-02-13T15:16:10.983Z,13.23
2023-02-13T15:18:45.276Z,13.33
2023-02-13T15:21:15.665Z,13.47
2023-02-13T15:23:43.779Z,13.50
2023-02-13T15:26:19.450Z,13.50
2023-02-13T15:28:58.894Z,13.53
2023-02-13T15:31:31.339Z,13.52
2023-02-13T15:33:59.649Z,13.53
2023-02-13T15:36:35.082Z,13.51
2023-02-13T15:39:11.217Z,13.50
2023-02-13T15:41:51.789Z,13.51
2023-02-13T15:44:22.980Z,13.48
2023-02-13T15:46:52.397Z,13.50
2023-02-13T15:49:25.823Z,13.60
2023-02-13T15:52:06.824Z,13.60
2023-02-13T15:54:35.787Z,13.58
2023-02-13T15:57:06.406Z,13.58
2023-02-13T15:59:37.475Z,13.60
2023-02-13T16:02:15.361Z,13.63
2023-02-13T16:04:43.743Z,13.63
2023-02-13T16:07:31.801Z,13.53
2023-02-13T16:10:15.832Z,13.49
2023-02-13T16:12:48.250Z,13.54
2023-02-13T16:15:20.232Z,13.57
2023-02-13T16:17:48.775Z,13.55
2023-02-13T16:20:25.630Z,13.54
2023-02-13T16:23:01.931Z,13.55
2023-02-13T16:25:33.589Z,13.56
2023-02-13T16:28:14.476Z,13.58
2023-02-13T16:30:47.251Z,13.57
2023-02-13T16:33:17.587Z,13.57
2023-02-13T16:35:50.353Z,13.55
2023-02-13T16:38:31.951Z,13.65
2023-02-13T16:41:03.284Z,13.77
2023-02-13T16:43:45.206Z,13.79
2023-02-13T16:46:19.385Z,13.76
2023-02-13T16:48:59.594Z,13.73
2023-02-13T16:51:30.516Z,13.67
2023-02-13T16:54:28.062Z,13.59
2023-02-13T16:57:00.995Z,13.54
2023-02-13T16:59:47.936Z,13.45
2023-02-13T17:02:16.248Z,13.52
2023-02-13T17:04:57.020Z,13.57
2023-02-13T17:07:33.894Z,13.51
2023-02-13T17:10:08.701Z,13.47
2023-02-13T17:12:38.066Z,13.41
2023-02-13T17:15:12.351Z,13.34
2023-02-13T17:17:40.850Z,13.31
2023-02-13T17:20:09.637Z,13.29
2023-02-13T17:22:40.273Z,13.26
2023-02-13T17:25:15.626Z,13.31
2023-02-13T17:27:44.022Z,13.39
2023-02-13T17:30:38.466Z,13.43
2023-02-13T17:33:12.114Z,13.39
2023-02-13T17:35:40.357Z,13.37
2023-02-13T17:38:10.079Z,13.37
2023-02-13T17:40:41.145Z,13.37
2023-02-13T17:43:11.221Z,13.31
2023-02-13T17:45:40.148Z,13.24
2023-02-13T17:48:09.319Z,13.30
2023-02-13T17:50:39.095Z,13.36
2023-02-13T17:53:12.214Z,13.36
2023-02-13T17:55:40.267Z,13.38
2023-02-13T17:58:08.591Z,13.40
2023-02-13T18:00:36.884Z,13.41
2023-02-13T18:03:05.046Z,13.39
2023-02-13T18:05:34.951Z,13.38
2023-02-13T18:08:03.219Z,13.46
2023-02-13T18:10:34.052Z,13.58
2023-02-13T18:13:05.409Z,13.65
2023-02-13T18:15:35.405Z,13.63
2023-02-13T18:18:03.554Z,13.60
2023-02-13T18:20:32.403Z,13.55
2023-02-13T18:23:01.425Z,13.46
2023-02-13T18:25:29.984Z,13.43
2023-02-13T18:27:58.347Z,13.42
2023-02-13T18:30:27.007Z,13.50
2023-02-13T18:32:55.980Z,13.60
2023-02-13T18:35:24.406Z,13.64
2023-02-13T18:37:52.998Z,13.64
2023-02-13T18:40:21.579Z,13.63
2023-02-13T18:42:51.287Z,13.60
2023-02-13T18:45:19.606Z,13.59
2023-02-13T18:47:48.794Z,13.62
2023-02-13T18:50:17.424Z,13.60
2023-02-13T18:52:47.164Z,13.65
2023-02-13T19:02:04.346Z,13.82
2023-02-13T19:04:32.102Z,13.79
2023-02-13T19:06:59.340Z,13.79
2023-02-13T19:09:26.256Z,13.78
2023-02-13T19:11:53.210Z,13.77
2023-02-13T19:14:21.626Z,13.76
2023-02-13T19:16:49.084Z,13.85
2023-02-13T19:19:16.642Z,13.86
2023-02-13T19:21:43.486Z,13.88
2023-02-13T19:24:10.948Z,13.90
2023-02-13T19:26:38.033Z,13.88
2023-02-13T19:29:04.943Z,13.85
2023-02-13T19:31:32.104Z,13.80
2023-02-13T19:34:00.117Z,13.77
2023-02-13T19:36:28.350Z,13.84
2023-02-13T19:39:00.012Z,13.95
2023-02-13T19:41:28.494Z,14.01
2023-02-13T19:43:56.153Z,14.02
2023-02-13T19:46:24.593Z,13.98
2023-02-13T19:48:52.024Z,13.87
2023-02-13T19:51:21.855Z,13.87
2023-02-13T19:53:54.584Z,13.85
2023-02-13T19:56:21.825Z,13.84
2023-02-13T19:58:48.886Z,13.82
2023-02-13T20:01:20.292Z,13.89
2023-02-13T20:03:47.496Z,13.89
2023-02-13T20:06:16.724Z,13.85
2023-02-13T20:08:44.153Z,13.81
2023-02-13T20:11:12.151Z,13.76
2023-02-13T20:13:38.970Z,13.74
2023-02-13T20:16:07.112Z,13.74
2023-02-13T20:18:35.003Z,13.72
2023-02-13T20:21:09.418Z,13.79
2023-02-13T20:23:36.890Z,13.91
2023-02-13T20:28:45.725Z,12.59
2023-02-13T20:31:16.094Z,13.62
2023-02-13T20:33:44.614Z,13.76
2023-02-13T20:36:14.551Z,13.81
2023-02-13T20:38:43.038Z,13.79
2023-02-13T20:41:12.431Z,13.78
2023-02-13T20:43:41.536Z,13.86
2023-02-13T20:46:10.064Z,13.90
2023-02-13T20:48:40.148Z,13.85
2023-02-13T20:51:11.791Z,13.80
2023-02-13T20:53:41.100Z,13.81
2023-02-13T20:56:17.903Z,13.83
2023-02-13T20:58:47.486Z,13.79
2023-02-13T21:01:20.943Z,13.82
2023-02-13T21:03:53.764Z,13.82
2023-02-13T21:06:27.097Z,13.92
2023-02-13T21:08:55.650Z,14.01
2023-02-13T21:11:30.697Z,14.02
2023-02-13T21:13:59.248Z,14.03
2023-02-13T21:16:29.567Z,14.00
2023-02-13T21:19:00.640Z,13.98
2023-02-13T21:21:31.771Z,14.00
2023-02-13T21:24:07.581Z,13.99
2023-02-13T21:26:36.268Z,14.00
2023-02-13T21:29:06.085Z,14.14
2023-02-13T21:31:36.343Z,14.30
2023-02-13T21:34:06.583Z,14.33
2023-02-13T21:36:38.679Z,14.29
2023-02-13T21:39:07.849Z,14.30
2023-02-13T21:41:37.201Z,14.34
2023-02-13T21:44:05.176Z,14.38
2023-02-13T21:46:33.578Z,14.37
2023-02-13T21:49:05.128Z,14.38
2023-02-13T21:51:35.047Z,14.36
2023-02-13T21:54:04.250Z,14.42
2023-02-13T21:56:35.526Z,14.50
2023-02-13T21:59:04.191Z,14.57
2023-02-13T22:01:46.031Z,14.61
2023-02-13T22:04:14.471Z,14.59
2023-02-13T22:06:43.048Z,14.56
2023-02-13T22:09:12.700Z,14.51
2023-02-13T22:11:40.834Z,14.48
2023-02-13T22:14:15.889Z,14.47
2023-02-13T22:16:44.398Z,14.48
2023-02-13T22:19:15.794Z,14.49
2023-02-13T22:21:44.209Z,14.53
2023-02-13T22:24:12.226Z,14.55
2023-02-13T22:26:41.805Z,14.51
2023-02-13T22:29:10.708Z,14.47
2023-02-13T22:31:39.656Z,14.44
2023-02-13T22:34:07.864Z,14.38
2023-02-13T22:36:40.323Z,14.38
2023-02-13T22:39:09.368Z,14.39
2023-02-13T22:41:37.860Z,14.38
2023-02-13T22:44:05.840Z,14.38
2023-02-13T22:46:35.434Z,14.47
2023-02-13T22:49:03.891Z,14.58
2023-02-13T22:51:33.517Z,14.60
2023-02-13T22:54:01.673Z,14.62
2023-02-13T22:56:30.235Z,14.64
2023-02-13T22:58:58.727Z,14.63
2023-02-13T23:01:27.366Z,14.63
2023-02-13T23:03:55.693Z,14.64
2023-02-13T23:06:24.802Z,14.64
2023-02-13T23:08:53.963Z,14.64
2023-02-13T23:11:42.572Z,14.63
2023-02-13T23:14:11.116Z,14.61
2023-02-13T23:16:57.804Z,14.71
2023-02-13T23:19:27.807Z,14.75
2023-02-13T23:21:55.771Z,14.75
2023-02-13T23:24:23.945Z,14.73
2023-02-13T23:26:52.181Z,14.69
2023-02-13T23:29:20.221Z,14.55
2023-02-13T23:31:48.724Z,14.49
2023-02-13T23:34:16.838Z,14.48
2023-02-13T23:36:44.920Z,14.46
2023-02-13T23:39:12.977Z,14.47
2023-02-13T23:41:41.046Z,14.47
2023-02-13T23:44:09.461Z,14.60
2023-02-13T23:46:40.478Z,14.65
2023-02-13T23:49:09.751Z,14.59
2023-02-13T23:51:39.795Z,14.55
2023-02-13T23:54:08.748Z,14.56
2023-02-13T23:56:37.995Z,14.59
2023-02-13T23:59:06.972Z,14.58
